Aviation Digital Data Service (ADDS)

Output produced by METARs form (0609 UTC 23 August 2017)
found at http://aviationweather.gov/adds/metars/
 
KMPV 230541Z 2306/2406 VRB05KT P6SM VCSH SCT015 BKN040 
     FM230900 25008KT P6SM SCT015 BKN040 
     TEMPO 2309/2311 1SM BR BKN009 
     FM231400 26010G18KT P6SM FEW150 
     FM240000 27006KT P6SM SCT130